Feng-yuan, Taiwan
Current Conditions -  °F | °C
As of 10:00 AM on Tuesday 23 Dec 2014 (Local Time) from RCMQ Reporting Station
Broken Clouds Broken Clouds  
Wind Chill: 61°   Ceiling: 6000
Heat Index: 61°   Visibility: 6mi
Dew Point: 48°   Wind: 2mph
Humidity: 63%   Direction: 20°NNE
Pressure: 30.18"   Gusts: NA
Location:  24.25°N, 120.72°E
Report Text: RCMQ 230200Z 02002KT 9999 FEW010 BKN060 16/09 Q1022 RMK A3020
Loading
Personal Weather Stations






























Interactive Weather Map New forecast layout! Learn more

10-Day Weather Forecast

Advertisements
Track Severe Weather on mobile